Time;durP1;ratioP1;P1;durP2;ratioP2;P2;SDS_P1;SDS_P2;PMS_P1;PMS_P2;Temp;Humidity;BMP_temperature;BMP_pressure;BME280_temperature;BME280_humidity;BME280_pressure;Samples;Min_cycle;Max_cycle;Signal;HPM_P1;HPM_P2
2022/11/21 00:00:46;;;;;;;120.53;57.33;;;-0.80;99.90;;;;;;5053040;28;20041;-67
2022/11/21 00:03:12;;;;;;;112.00;52.30;;;-0.80;99.90;;;;;;5053196;28;20016;-68
2022/11/21 00:05:40;;;;;;;122.03;55.80;;;-0.80;99.90;;;;;;5059533;28;20024;-67
2022/11/21 00:08:07;;;;;;;119.00;54.65;;;-0.80;99.90;;;;;;5073056;28;20013;-68
2022/11/21 00:10:32;;;;;;;123.18;55.55;;;-0.80;99.90;;;;;;5062022;28;20429;-74
2022/11/21 00:12:58;;;;;;;116.80;56.58;;;-0.70;99.90;;;;;;5053125;28;20029;-67
2022/11/21 00:15:25;;;;;;;123.40;53.67;;;-0.70;99.90;;;;;;5052872;28;20033;-67
2022/11/21 00:17:51;;;;;;;128.25;55.67;;;-0.70;99.90;;;;;;5033176;28;20029;-74
2022/11/21 00:20:19;;;;;;;117.55;55.75;;;-0.70;99.90;;;;;;5035494;28;20553;-73
2022/11/21 00:22:45;;;;;;;121.38;55.17;;;-0.70;99.90;;;;;;5037229;28;20387;-74
2022/11/21 00:25:11;;;;;;;129.65;59.03;;;-0.60;99.90;;;;;;5035817;28;20022;-73
2022/11/21 00:27:36;;;;;;;228.73;97.55;;;-0.60;99.90;;;;;;5037063;28;20059;-74
2022/11/21 00:30:03;;;;;;;198.32;79.05;;;-0.60;99.90;;;;;;5037028;28;20394;-68
2022/11/21 00:32:29;;;;;;;138.05;64.55;;;-0.60;99.90;;;;;;5035610;28;20025;-68
2022/11/21 00:34:54;;;;;;;126.75;55.92;;;-0.60;99.90;;;;;;5036930;28;20021;-73
2022/11/21 00:37:20;;;;;;;134.00;59.33;;;-0.60;99.90;;;;;;5036769;28;20026;-73
2022/11/21 00:39:45;;;;;;;119.43;52.25;;;-0.60;99.90;;;;;;5036869;28;20034;-67
2022/11/21 00:42:11;;;;;;;237.75;86.13;;;-0.60;99.90;;;;;;5035305;28;20046;-73
2022/11/21 00:44:37;;;;;;;261.23;98.57;;;-0.50;99.90;;;;;;5035438;28;20021;-73
2022/11/21 00:47:02;;;;;;;233.27;94.72;;;-0.50;99.90;;;;;;5036815;28;20028;-68
2022/11/21 00:49:28;;;;;;;211.10;90.45;;;-0.60;99.90;;;;;;5036633;28;20021;-73
2022/11/21 00:51:53;;;;;;;280.77;113.32;;;-0.50;99.90;;;;;;5035326;28;20018;-68
2022/11/21 00:54:19;;;;;;;272.42;106.38;;;-0.50;99.90;;;;;;5036493;28;20036;-73
2022/11/21 00:56:45;;;;;;;239.38;88.47;;;-0.50;99.90;;;;;;5036550;28;20022;-69
2022/11/21 00:59:10;;;;;;;273.85;103.78;;;-0.50;99.90;;;;;;5035148;28;20041;-73
2022/11/21 01:01:36;;;;;;;436.95;160.40;;;-0.50;99.90;;;;;;5036431;28;20092;-67
2022/11/21 01:04:02;;;;;;;490.38;185.52;;;-0.50;99.90;;;;;;5036402;28;20033;-67
2022/11/21 01:06:27;;;;;;;282.80;110.60;;;-0.50;99.90;;;;;;5034929;28;20068;-68
2022/11/21 01:08:53;;;;;;;232.20;92.40;;;-0.50;99.90;;;;;;5036376;28;20097;-73
2022/11/21 01:11:20;;;;;;;229.70;90.03;;;-0.50;99.90;;;;;;5068578;28;20025;-73
2022/11/21 01:13:47;;;;;;;208.70;85.97;;;-0.50;99.90;;;;;;5076233;28;20021;-67
2022/11/21 01:16:16;;;;;;;190.00;80.90;;;-0.50;99.90;;;;;;5069048;28;20078;-74
2022/11/21 01:18:42;;;;;;;177.45;75.20;;;-0.50;99.90;;;;;;5054837;28;20108;-73
2022/11/21 01:21:19;;;;;;;185.23;76.78;;;-0.40;99.90;;;;;;5055879;28;20115;-67
2022/11/21 01:23:45;;;;;;;247.70;104.00;;;-0.40;99.90;;;;;;5056113;28;20025;-67
2022/11/21 01:26:14;;;;;;;145.70;67.78;;;-0.40;99.90;;;;;;5055827;28;20436;-67
2022/11/21 01:28:40;;;;;;;123.95;55.78;;;-0.50;99.90;;;;;;5056062;28;20129;-67
2022/11/21 01:31:08;;;;;;;130.60;61.35;;;-0.50;99.90;;;;;;5054436;28;20021;-67
2022/11/21 01:33:34;;;;;;;163.13;70.35;;;-0.50;99.90;;;;;;5054519;28;20028;-73
2022/11/21 01:36:21;;;;;;;253.13;105.50;;;-0.50;99.90;;;;;;5055838;28;20036;-72
2022/11/21 01:38:49;;;;;;;221.75;94.93;;;-0.50;99.90;;;;;;5055885;28;20040;-67
2022/11/21 01:41:17;;;;;;;160.07;70.40;;;-0.50;99.90;;;;;;5055598;28;20040;-73
2022/11/21 01:43:43;;;;;;;134.65;62.78;;;-0.50;99.90;;;;;;5055635;28;20099;-73
2022/11/21 01:46:08;;;;;;;116.50;57.50;;;-0.50;99.90;;;;;;5055504;28;20500;-73
2022/11/21 01:48:43;;;;;;;111.18;51.38;;;-0.50;99.90;;;;;;5055417;28;20426;-73
2022/11/21 01:51:24;;;;;;;111.68;50.72;;;-0.50;99.90;;;;;;5055538;28;20495;-73
2022/11/21 01:54:06;;;;;;;115.97;49.75;;;-0.50;99.90;;;;;;5054176;28;20024;-73
2022/11/21 01:56:38;;;;;;;104.15;49.17;;;-0.40;99.90;;;;;;5054289;28;20028;-74
2022/11/21 01:59:08;;;;;;;111.97;52.67;;;-0.50;99.90;;;;;;5055360;28;20025;-73
2022/11/21 02:01:35;;;;;;;111.82;49.05;;;-0.50;99.90;;;;;;5053819;28;20027;-67
2022/11/21 02:04:03;;;;;;;101.13;49.90;;;-0.50;99.90;;;;;;5054933;28;20390;-68
2022/11/21 02:06:30;;;;;;;101.30;48.53;;;-0.40;99.90;;;;;;5055170;28;20058;-73
2022/11/21 02:08:57;;;;;;;102.22;44.58;;;-0.40;99.90;;;;;;5054986;28;20021;-74
2022/11/21 02:11:41;;;;;;;125.10;54.90;;;-0.50;99.90;;;;;;5054914;28;20025;-73
2022/11/21 02:14:07;;;;;;;96.75;45.20;;;-0.40;99.90;;;;;;5053720;28;20124;-67
2022/11/21 02:16:34;;;;;;;106.53;46.50;;;-0.50;99.90;;;;;;5054887;28;20013;-68
2022/11/21 02:18:59;;;;;;;193.77;82.53;;;-0.50;99.90;;;;;;5054904;28;20386;-73
2022/11/21 02:21:31;;;;;;;109.80;50.80;;;-0.50;99.90;;;;;;5054998;28;20013;-68
2022/11/21 02:24:01;;;;;;;106.07;48.00;;;-0.50;99.90;;;;;;5054838;28;20100;-73
2022/11/21 02:26:28;;;;;;;112.13;49.10;;;-0.40;99.90;;;;;;5053654;28;20026;-73
2022/11/21 02:28:53;;;;;;;126.22;56.33;;;-0.40;99.90;;;;;;5054761;28;20395;-74
2022/11/21 02:31:19;;;;;;;118.35;53.13;;;-0.40;99.90;;;;;;5054727;28;20025;-73
2022/11/21 02:33:44;;;;;;;129.45;57.22;;;-0.40;99.90;;;;;;5054845;28;20022;-69
2022/11/21 02:36:32;;;;;;;104.28;50.70;;;-0.40;99.90;;;;;;5054650;28;20047;-67
2022/11/21 02:38:58;;;;;;;102.45;47.05;;;-0.50;99.90;;;;;;5054154;28;20031;-67
2022/11/21 02:41:27;;;;;;;103.18;44.90;;;-0.50;99.90;;;;;;5054561;28;20096;-73
2022/11/21 02:44:03;;;;;;;88.35;42.58;;;-0.50;99.90;;;;;;5054182;28;20053;-74
2022/11/21 02:46:29;;;;;;;95.03;45.50;;;-0.50;99.90;;;;;;5054670;28;20100;-68
2022/11/21 02:48:57;;;;;;;94.93;45.03;;;-0.60;99.90;;;;;;5053050;28;20040;-73
2022/11/21 02:51:22;;;;;;;97.95;45.30;;;-0.60;99.90;;;;;;5054356;28;20390;-68
2022/11/21 02:53:48;;;;;;;107.72;47.67;;;-0.60;99.90;;;;;;5053074;28;20039;-74
2022/11/21 02:56:14;;;;;;;111.18;48.90;;;-0.60;99.90;;;;;;5054215;28;20475;-73
2022/11/21 02:58:40;;;;;;;112.63;53.58;;;-0.60;99.90;;;;;;5054124;28;20017;-73
2022/11/21 03:01:05;;;;;;;131.55;60.97;;;-0.60;99.90;;;;;;5053998;28;20043;-67
2022/11/21 03:03:31;;;;;;;124.63;61.83;;;-0.60;99.90;;;;;;5054052;28;20132;-68
2022/11/21 03:05:56;;;;;;;103.00;51.33;;;-0.60;99.90;;;;;;5054082;28;20074;-74
2022/11/21 03:08:22;;;;;;;107.80;52.13;;;-0.60;99.90;;;;;;5053964;28;20024;-73
2022/11/21 03:10:47;;;;;;;107.18;49.83;;;-0.60;99.90;;;;;;5052650;28;20032;-73
2022/11/21 03:13:13;;;;;;;136.32;60.05;;;-0.60;99.90;;;;;;5053858;28;20021;-69
2022/11/21 03:15:39;;;;;;;158.13;69.18;;;-0.60;99.90;;;;;;5053845;28;20017;-73
2022/11/21 03:18:04;;;;;;;218.13;94.10;;;-0.60;99.90;;;;;;5052553;28;20033;-68
2022/11/21 03:20:32;;;;;;;248.02;99.18;;;-0.60;99.90;;;;;;5052440;28;20033;-67
2022/11/21 03:22:57;;;;;;;239.98;99.50;;;-0.60;99.90;;;;;;5053742;28;20017;-73
2022/11/21 03:25:23;;;;;;;228.13;96.35;;;-0.50;99.90;;;;;;5053656;28;20457;-67
2022/11/21 03:27:53;;;;;;;210.55;86.72;;;-0.50;99.90;;;;;;5053579;28;20036;-74
2022/11/21 03:30:20;;;;;;;166.25;70.55;;;-0.50;99.90;;;;;;5053553;28;20483;-67
2022/11/21 03:32:45;;;;;;;158.48;65.82;;;-0.50;99.90;;;;;;5053525;28;20021;-67
2022/11/21 03:35:11;;;;;;;125.90;52.72;;;-0.50;99.90;;;;;;5053484;28;20605;-73
2022/11/21 03:37:36;;;;;;;136.40;56.88;;;-0.50;99.90;;;;;;5053463;28;20021;-68
2022/11/21 03:40:02;;;;;;;147.60;61.05;;;-0.50;99.90;;;;;;5053307;28;20072;-68
2022/11/21 03:42:28;;;;;;;155.80;63.92;;;-0.50;99.90;;;;;;5053381;28;20055;-74
2022/11/21 03:44:53;;;;;;;126.03;55.55;;;-0.50;99.90;;;;;;5053378;28;20018;-67
2022/11/21 03:47:19;;;;;;;109.72;50.67;;;-0.50;99.90;;;;;;5053327;28;20363;-74
2022/11/21 03:49:44;;;;;;;104.80;45.53;;;-0.50;99.90;;;;;;5053136;28;20028;-68
2022/11/21 03:52:10;;;;;;;106.82;46.72;;;-0.50;99.90;;;;;;5053339;28;20029;-74
2022/11/21 03:54:36;;;;;;;103.18;45.90;;;-0.50;99.90;;;;;;5052426;28;20132;-67
2022/11/21 03:57:01;;;;;;;102.25;45.28;;;-0.50;99.90;;;;;;5053374;28;20021;-73
2022/11/21 03:59:27;;;;;;;935.67;372.25;;;-0.50;99.90;;;;;;5051677;28;20364;-67
2022/11/21 04:01:52;;;;;;;868.58;340.20;;;-0.60;99.90;;;;;;5053208;28;20021;-74
2022/11/21 04:04:18;;;;;;;487.83;173.48;;;-0.70;99.90;;;;;;5053076;28;20098;-67
2022/11/21 04:06:44;;;;;;;533.63;193.73;;;-0.70;99.90;;;;;;5051984;28;20017;-69
2022/11/21 04:09:09;;;;;;;521.97;181.00;;;-0.70;99.90;;;;;;5053069;28;20092;-67
2022/11/21 04:11:35;;;;;;;359.13;119.32;;;-0.80;99.90;;;;;;5053062;28;20025;-73
2022/11/21 04:14:00;;;;;;;296.00;100.65;;;-0.80;99.90;;;;;;5053018;28;20482;-67
2022/11/21 04:16:26;;;;;;;213.15;78.30;;;-0.80;99.90;;;;;;5053020;28;20024;-74
2022/11/21 04:18:51;;;;;;;168.00;64.13;;;-0.90;99.90;;;;;;5052973;28;20096;-68
2022/11/21 04:21:17;;;;;;;115.82;48.80;;;-0.90;99.90;;;;;;5052981;28;20393;-68
2022/11/21 04:23:43;;;;;;;110.43;42.45;;;-1.00;99.90;;;;;;5052924;28;20021;-68
2022/11/21 04:26:08;;;;;;;98.75;39.20;;;-1.10;99.90;;;;;;5051712;28;20120;-73
2022/11/21 04:28:34;;;;;;;85.90;35.50;;;-1.10;99.90;;;;;;5052919;28;20063;-68
2022/11/21 04:31:06;;;;;;;83.28;35.28;;;-1.20;99.90;;;;;;5052959;28;20491;-67
2022/11/21 04:33:32;;;;;;;75.90;35.30;;;-1.30;99.90;;;;;;5053255;28;20068;-67
2022/11/21 04:35:58;;;;;;;83.47;35.88;;;-1.40;99.90;;;;;;5052726;28;20498;-70
2022/11/21 04:38:23;;;;;;;89.30;38.88;;;-1.50;99.90;;;;;;5052765;28;20095;-68
2022/11/21 04:40:49;;;;;;;95.45;37.97;;;-1.50;99.90;;;;;;5052719;28;20090;-73
2022/11/21 04:43:15;;;;;;;84.50;35.50;;;-1.60;99.90;;;;;;5051273;28;20494;-67
2022/11/21 04:45:40;;;;;;;79.05;34.80;;;-1.60;99.90;;;;;;5051372;28;20035;-68
2022/11/21 04:48:06;;;;;;;87.30;35.60;;;-1.60;99.90;;;;;;5051587;28;20074;-73
2022/11/21 04:50:32;;;;;;;76.57;32.92;;;-1.60;99.90;;;;;;5052487;28;20036;-67
2022/11/21 04:52:57;;;;;;;69.45;32.30;;;-1.60;99.90;;;;;;5052763;28;20025;-73
2022/11/21 04:55:27;;;;;;;76.85;33.72;;;-1.70;99.90;;;;;;5052561;28;20036;-73
2022/11/21 04:57:53;;;;;;;79.50;33.45;;;-1.70;99.90;;;;;;5052665;28;20025;-73
2022/11/21 05:00:18;;;;;;;247.40;89.47;;;-1.70;99.90;;;;;;5052380;28;20037;-68
2022/11/21 05:02:44;;;;;;;298.38;108.15;;;-1.80;99.90;;;;;;5052618;28;20030;-68
2022/11/21 05:05:10;;;;;;;256.77;92.13;;;-1.80;99.90;;;;;;5053066;28;20488;-74
2022/11/21 05:07:37;;;;;;;115.00;47.20;;;-1.90;99.90;;;;;;5056358;28;20021;-67
2022/11/21 05:10:07;;;;;;;106.63;44.13;;;-2.00;99.90;;;;;;5063257;28;20028;-68
2022/11/21 05:15:18;;;;;;;106.25;40.08;;;-2.10;99.90;;;;;;5075440;28;20044;-67
2022/11/21 05:17:43;;;;;;;95.18;42.65;;;-2.30;99.90;;;;;;5056305;28;20390;-73
2022/11/21 05:20:09;;;;;;;121.68;41.90;;;-2.40;99.90;;;;;;5054612;28;20051;-73
2022/11/21 05:22:35;;;;;;;107.70;41.22;;;-2.50;99.90;;;;;;5050488;28;20160;-74
2022/11/21 05:25:01;;;;;;;99.53;39.58;;;-2.60;99.90;;;;;;5056231;28;20107;-68
2022/11/21 05:27:26;;;;;;;98.03;36.67;;;-2.70;99.90;;;;;;5074361;28;20029;-67
2022/11/21 05:29:53;;;;;;;91.93;33.75;;;-2.80;99.90;;;;;;5074317;28;20029;-73
2022/11/21 05:32:19;;;;;;;95.45;32.33;;;-3.00;99.90;;;;;;5069793;28;20024;-74
2022/11/21 05:34:44;;;;;;;88.63;29.55;;;-3.10;99.90;;;;;;5075758;28;20024;-67
2022/11/21 05:37:10;;;;;;;115.85;32.63;;;-3.20;99.90;;;;;;5074491;28;20024;-67
2022/11/21 05:39:35;;;;;;;87.88;28.80;;;-3.30;99.90;;;;;;5058146;28;20020;-72
2022/11/21 05:42:01;;;;;;;88.63;31.10;;;-3.30;99.90;;;;;;5075201;28;20056;-69
2022/11/21 05:44:26;;;;;;;82.13;30.15;;;-3.30;99.90;;;;;;5075372;28;20024;-73
2022/11/21 05:46:52;;;;;;;97.45;35.05;;;-3.30;99.90;;;;;;5075244;28;20092;-76
2022/11/21 05:49:18;;;;;;;84.32;31.45;;;-3.30;99.90;;;;;;5074143;28;20032;-71
2022/11/21 05:51:43;;;;;;;100.93;42.45;;;-3.30;99.90;;;;;;5073406;28;20055;-69
2022/11/21 05:54:15;;;;;;;129.85;51.30;;;-3.20;99.90;;;;;;5075339;28;20019;-68
2022/11/21 05:56:41;;;;;;;112.47;44.17;;;-3.20;99.90;;;;;;5064263;28;20021;-68
2022/11/21 05:59:09;;;;;;;122.35;50.90;;;-3.10;99.90;;;;;;5075156;28;20027;-74
2022/11/21 06:04:19;;;;;;;102.32;43.90;;;-3.10;99.90;;;;;;5075453;28;20074;-67
2022/11/21 06:06:44;;;;;;;95.15;39.58;;;-3.00;99.90;;;;;;5074536;28;20025;-73
2022/11/21 06:09:10;;;;;;;91.75;36.80;;;-3.00;99.90;;;;;;5073414;28;20465;-67
2022/11/21 06:11:36;;;;;;;104.70;43.63;;;-3.00;99.90;;;;;;5071959;28;20016;-74
2022/11/21 06:14:02;;;;;;;126.65;54.35;;;-3.00;99.90;;;;;;5074840;28;20048;-68
2022/11/21 06:16:27;;;;;;;88.70;38.88;;;-3.00;99.90;;;;;;5063800;28;20060;-70
2022/11/21 06:18:53;;;;;;;69.68;30.17;;;-3.00;99.90;;;;;;5073782;28;20025;-70
2022/11/21 06:21:19;;;;;;;75.00;35.53;;;-3.00;99.90;;;;;;5061554;28;20398;-68
2022/11/21 06:23:46;;;;;;;95.68;38.85;;;-3.00;99.90;;;;;;5070930;28;20051;-74
2022/11/21 06:26:14;;;;;;;81.70;35.10;;;-3.00;99.90;;;;;;5066948;28;20146;-76
2022/11/21 06:28:41;;;;;;;97.00;40.70;;;-3.00;99.90;;;;;;5066593;28;20021;-76
2022/11/21 06:31:09;;;;;;;85.22;38.28;;;-2.90;99.90;;;;;;5065847;28;20029;-68
2022/11/21 06:33:36;;;;;;;89.22;39.65;;;-2.90;99.90;;;;;;5046327;28;20066;-68
2022/11/21 06:36:07;;;;;;;100.70;38.92;;;-3.00;99.90;;;;;;5072573;28;20021;-75
2022/11/21 06:38:33;;;;;;;93.63;39.67;;;-3.00;99.90;;;;;;5073107;28;20021;-76
2022/11/21 06:41:10;;;;;;;120.32;50.47;;;-3.00;99.90;;;;;;5062847;28;20090;-76
2022/11/21 06:43:36;;;;;;;97.72;43.05;;;-3.00;99.90;;;;;;5032315;28;20075;-68
2022/11/21 06:46:02;;;;;;;91.38;41.33;;;-2.90;99.90;;;;;;5031465;28;20026;-68
2022/11/21 06:48:31;;;;;;;96.55;45.53;;;-2.90;99.90;;;;;;5032957;28;20076;-75
2022/11/21 06:51:05;;;;;;;76.57;34.25;;;-2.80;99.90;;;;;;5034319;28;20087;-67
2022/11/21 06:53:31;;;;;;;79.28;34.70;;;-2.80;99.90;;;;;;5034406;28;20435;-75
2022/11/21 06:55:58;;;;;;;72.82;32.03;;;-2.70;99.90;;;;;;5045055;28;20035;-76
2022/11/21 06:58:24;;;;;;;110.68;46.08;;;-2.70;99.90;;;;;;5052835;28;20475;-76
2022/11/21 07:00:50;;;;;;;158.25;68.22;;;-2.70;99.90;;;;;;5052866;28;20036;-67
2022/11/21 07:03:16;;;;;;;177.57;69.75;;;-2.60;99.90;;;;;;5054008;28;20025;-75
2022/11/21 07:05:41;;;;;;;173.43;67.22;;;-2.60;99.90;;;;;;5052844;28;20021;-68
2022/11/21 07:08:07;;;;;;;82.38;37.60;;;-2.60;99.90;;;;;;5052558;28;20025;-69
2022/11/21 07:10:32;;;;;;;80.07;33.88;;;-2.60;99.90;;;;;;5065742;28;20086;-68
2022/11/21 07:15:44;;;;;;;173.43;71.55;;;-2.50;99.90;;;;;;5063622;28;20036;-75
2022/11/21 07:18:10;;;;;;;112.57;50.30;;;-2.40;99.90;;;;;;5053693;28;20017;-68
2022/11/21 07:20:36;;;;;;;150.43;64.40;;;-2.40;99.90;;;;;;5053445;28;20040;-68
2022/11/21 07:23:02;;;;;;;149.25;62.67;;;-2.40;99.90;;;;;;5049826;28;20050;-68
2022/11/21 07:25:28;;;;;;;86.13;35.08;;;-2.30;99.90;;;;;;5053182;28;20025;-68
2022/11/21 07:27:53;;;;;;;83.13;37.65;;;-2.30;99.90;;;;;;5052257;28;20040;-76
2022/11/21 07:30:19;;;;;;;86.93;37.28;;;-2.30;99.90;;;;;;5039069;28;20054;-75
2022/11/21 07:32:45;;;;;;;111.00;45.20;;;-2.20;99.90;;;;;;5064302;28;20020;-75
2022/11/21 07:35:10;;;;;;;148.65;59.10;;;-2.20;99.90;;;;;;5071259;28;20048;-74
2022/11/21 07:37:39;;;;;;;109.18;49.47;;;-2.20;99.90;;;;;;5071375;28;20389;-69
2022/11/21 07:40:06;;;;;;;78.18;35.75;;;-2.10;99.90;;;;;;5072498;28;20405;-67
2022/11/21 07:42:32;;;;;;;86.65;38.40;;;-2.00;99.90;;;;;;5073311;28;20044;-68
2022/11/21 07:44:58;;;;;;;90.28;36.60;;;-2.00;99.90;;;;;;5068914;28;20104;-75
2022/11/21 07:47:23;;;;;;;92.18;42.03;;;-1.90;99.90;;;;;;5049734;28;20108;-68
2022/11/21 07:49:49;;;;;;;100.88;39.40;;;-1.80;99.90;;;;;;5051294;28;20017;-75
2022/11/21 07:52:14;;;;;;;97.93;40.92;;;-1.80;99.90;;;;;;5049827;28;20024;-68
2022/11/21 07:54:40;;;;;;;108.88;42.38;;;-1.70;99.90;;;;;;5051121;28;20636;-76
2022/11/21 07:57:06;;;;;;;107.60;45.38;;;-1.70;99.90;;;;;;5050572;28;20133;-76
2022/11/21 07:59:31;;;;;;;103.00;40.88;;;-1.60;99.90;;;;;;5050600;28;20021;-68
2022/11/21 08:01:57;;;;;;;113.47;38.75;;;-1.60;99.90;;;;;;5052961;28;20566;-76
2022/11/21 08:04:22;;;;;;;101.03;35.67;;;-1.60;99.90;;;;;;5052954;28;20025;-68
2022/11/21 08:06:48;;;;;;;202.20;84.47;;;-1.60;99.90;;;;;;5051730;28;20071;-68
2022/11/21 08:09:13;;;;;;;183.25;75.80;;;-1.60;99.90;;;;;;5052891;28;20029;-76
2022/11/21 08:11:39;;;;;;;129.50;48.05;;;-1.60;99.90;;;;;;5053118;28;20542;-69
2022/11/21 08:14:04;;;;;;;149.60;51.42;;;-1.60;99.90;;;;;;5052988;28;20548;-75
2022/11/21 08:16:31;;;;;;;148.55;59.22;;;-1.50;99.90;;;;;;5051680;28;20122;-74
2022/11/21 08:18:58;;;;;;;158.27;47.90;;;-1.50;99.90;;;;;;5052874;28;20021;-68
2022/11/21 08:21:24;;;;;;;1939.38;678.00;;;-1.30;99.90;;;;;;5051594;28;20056;-68
2022/11/21 08:23:49;;;;;;;721.97;369.40;;;-1.20;99.90;;;;;;5051679;28;20079;-69
2022/11/21 08:26:15;;;;;;;284.15;101.53;;;-1.00;99.90;;;;;;5051387;28;20033;-67
2022/11/21 08:28:41;;;;;;;1378.15;561.95;;;-0.90;99.90;;;;;;5052863;28;20025;-75
2022/11/21 08:31:07;;;;;;;1999.90;848.63;;;-0.70;99.90;;;;;;5052762;28;20382;-67
2022/11/21 08:33:33;;;;;;;1659.38;687.30;;;-0.60;99.90;;;;;;5052769;28;20025;-68
2022/11/21 08:36:03;;;;;;;1999.90;977.75;;;-0.40;99.90;;;;;;5050465;28;20125;-76
2022/11/21 08:38:28;;;;;;;814.08;463.23;;;-0.30;99.90;;;;;;5051011;28;20434;-68
2022/11/21 08:43:38;;;;;;;484.88;217.40;;;0.00;99.90;;;;;;5055465;28;20136;-68
2022/11/21 08:46:04;;;;;;;284.15;105.78;;;0.10;99.90;;;;;;5055487;28;20053;-76
2022/11/21 08:48:29;;;;;;;215.25;83.70;;;0.20;99.90;;;;;;5054654;28;20025;-76
2022/11/21 08:50:58;;;;;;;175.50;86.90;;;0.30;99.90;;;;;;5056314;28;20029;-76
2022/11/21 08:53:23;;;;;;;270.08;154.18;;;0.40;99.90;;;;;;5055656;28;20458;-69
2022/11/21 08:55:49;;;;;;;373.00;230.90;;;0.50;99.90;;;;;;5056043;28;20040;-68
2022/11/21 08:58:14;;;;;;;268.67;146.23;;;0.50;99.90;;;;;;5055593;28;20475;-70
2022/11/21 09:00:40;;;;;;;191.93;93.88;;;0.50;99.90;;;;;;5056090;28;20048;-68
2022/11/21 09:03:05;;;;;;;231.02;122.43;;;0.60;99.90;;;;;;5056044;28;20028;-69
2022/11/21 09:05:32;;;;;;;1195.55;638.38;;;0.80;99.90;;;;;;5056185;28;20086;-77
2022/11/21 09:07:58;;;;;;;617.53;357.20;;;0.90;99.90;;;;;;5056243;28;20834;-68
2022/11/21 09:10:25;;;;;;;487.48;246.70;;;1.00;99.90;;;;;;5055911;28;20021;-68
2022/11/21 09:12:51;;;;;;;169.63;82.65;;;1.20;99.90;;;;;;5054665;28;20021;-76
2022/11/21 09:18:04;;;;;;;361.63;170.23;;;1.40;99.90;;;;;;5055829;28;20032;-76
2022/11/21 09:20:35;;;;;;;1471.03;629.75;;;1.40;99.90;;;;;;5055881;28;20036;-68
2022/11/21 09:23:18;;;;;;;500.67;270.98;;;1.50;99.90;;;;;;5054367;28;20451;-68
2022/11/21 09:25:44;;;;;;;1237.78;563.72;;;1.50;99.90;;;;;;5055808;28;20087;-68
2022/11/21 09:28:11;;;;;;;1150.00;563.63;;;1.60;99.90;;;;;;5055496;28;20076;-70
2022/11/21 09:30:38;;;;;;;1004.15;538.42;;;1.60;99.90;;;;;;5055687;28;20025;-68
2022/11/21 09:33:07;;;;;;;536.55;258.20;;;1.70;99.90;;;;;;5055473;28;20036;-69
2022/11/21 09:35:33;;;;;;;550.08;291.42;;;1.70;99.90;;;;;;5055587;28;20025;-68
2022/11/21 09:37:59;;;;;;;375.95;192.75;;;1.80;99.90;;;;;;5055596;28;20025;-70
2022/11/21 09:40:25;;;;;;;173.18;85.03;;;1.80;99.90;;;;;;5055054;28;20045;-66
2022/11/21 09:43:24;;;;;;;198.45;99.45;;;1.80;99.90;;;;;;5055436;28;20108;-67
2022/11/21 09:45:56;;;;;;;95.57;49.95;;;1.80;99.90;;;;;;5055348;28;20021;-66
2022/11/21 09:48:40;;;;;;;128.55;59.78;;;1.80;99.90;;;;;;5053903;28;20036;-74
2022/11/21 09:51:11;;;;;;;267.92;130.68;;;1.90;99.90;;;;;;5053811;28;20056;-66
2022/11/21 09:53:46;;;;;;;203.23;99.63;;;1.90;99.90;;;;;;5053038;28;20021;-75
2022/11/21 09:56:16;;;;;;;153.10;76.60;;;2.00;99.90;;;;;;5055085;28;20106;-75
2022/11/21 09:59:02;;;;;;;112.03;60.88;;;2.10;99.90;;;;;;5055063;28;20144;-75
2022/11/21 10:01:28;;;;;;;85.68;46.42;;;2.20;99.90;;;;;;5053697;28;20194;-74
2022/11/21 10:03:54;;;;;;;115.82;57.85;;;2.30;99.90;;;;;;5054799;28;20483;-74
2022/11/21 10:06:47;;;;;;;101.38;48.67;;;2.30;99.90;;;;;;5054685;28;20033;-75
2022/11/21 10:09:32;;;;;;;84.53;44.63;;;2.30;99.90;;;;;;5053391;28;20052;-74
2022/11/21 10:15:07;;;;;;;89.63;45.17;;;2.40;99.90;;;;;;5054006;28;20055;-66
2022/11/21 10:17:51;;;;;;;93.00;46.05;;;2.50;99.90;;;;;;5054553;28;20390;-67
2022/11/21 10:20:54;;;;;;;110.85;59.53;;;2.50;99.90;;;;;;5053062;28;20098;-67
2022/11/21 10:23:44;;;;;;;133.43;69.65;;;2.60;99.90;;;;;;5052767;28;20033;-67
2022/11/21 10:26:49;;;;;;;74.72;37.75;;;2.60;99.90;;;;;;5054334;28;20029;-67
2022/11/21 10:29:35;;;;;;;118.07;55.50;;;2.70;99.90;;;;;;5047937;28;20063;-66
2022/11/21 10:32:22;;;;;;;81.18;42.15;;;2.80;99.90;;;;;;5054437;28;20475;-66
2022/11/21 10:34:51;;;;;;;77.10;37.25;;;2.80;99.90;;;;;;5053658;28;20031;-67
2022/11/21 10:37:37;;;;;;;70.70;37.85;;;2.80;99.90;;;;;;5049630;28;20022;-74
2022/11/21 10:40:28;;;;;;;76.88;37.75;;;2.90;99.90;;;;;;5033967;28;20060;-75
2022/11/21 10:45:15;;;;;;;75.72;35.13;;;2.90;99.90;;;;;;5034520;28;20056;-74
2022/11/21 10:45:47;;;;;;;63.55;29.95;;;2.90;99.90;;;;;;5034028;28;20057;-66
2022/11/21 10:48:12;;;;;;;65.22;31.65;;;3.00;99.90;;;;;;5032761;28;20100;-67
2022/11/21 10:51:19;;;;;;;74.60;35.95;;;3.00;99.90;;;;;;5040247;28;20459;-66
2022/11/21 10:56:33;;;;;;;48.08;27.33;;;3.00;99.90;;;;;;5054165;28;20535;-77
2022/11/21 10:59:10;;;;;;;45.72;27.00;;;3.10;99.90;;;;;;5052627;28;20033;-75
2022/11/21 11:01:35;;;;;;;61.53;34.25;;;3.10;99.90;;;;;;5053090;28;20096;-66
2022/11/21 11:04:10;;;;;;;42.63;22.48;;;3.10;99.90;;;;;;5053498;28;20021;-67
2022/11/21 11:06:44;;;;;;;46.95;21.30;;;3.20;99.90;;;;;;5053784;28;20021;-67
2022/11/21 11:09:27;;;;;;;39.95;21.27;;;3.20;99.90;;;;;;5055366;28;20096;-75
2022/11/21 11:12:13;;;;;;;42.22;21.80;;;3.30;99.90;;;;;;5072469;28;20109;-66
2022/11/21 11:14:39;;;;;;;40.25;23.02;;;3.30;99.90;;;;;;5072114;28;20032;-75
2022/11/21 11:17:04;;;;;;;113.63;44.38;;;3.40;99.90;;;;;;5039922;28;20471;-75
2022/11/21 11:19:30;;;;;;;104.32;46.85;;;3.40;99.90;;;;;;5032167;28;20472;-67
2022/11/21 11:21:55;;;;;;;79.10;39.60;;;3.50;99.90;;;;;;5031370;28;20018;-71
2022/11/21 11:24:26;;;;;;;48.42;25.90;;;3.50;99.90;;;;;;5032405;28;20056;-68
2022/11/21 11:26:59;;;;;;;32.60;19.20;;;3.60;99.90;;;;;;5033720;28;20028;-75
2022/11/21 11:29:30;;;;;;;28.38;17.17;;;3.70;99.90;;;;;;5032352;28;20044;-67
2022/11/21 11:32:16;;;;;;;105.03;40.78;;;3.90;99.90;;;;;;5033314;28;20021;-75
2022/11/21 11:34:59;;;;;;;43.42;20.75;;;3.90;99.90;;;;;;5031363;28;20056;-68
2022/11/21 11:37:38;;;;;;;25.95;14.07;;;4.00;99.90;;;;;;5031695;28;20030;-67
2022/11/21 11:40:15;;;;;;;23.10;13.38;;;4.10;99.90;;;;;;5032648;28;20083;-68
2022/11/21 11:48:39;;;;;;;20.95;12.02;;;4.20;99.90;;;;;;5033507;28;20076;-68
2022/11/21 11:51:42;;;;;;;39.10;21.48;;;4.20;99.90;;;;;;5032971;28;20030;-67
2022/11/21 11:54:16;;;;;;;60.55;29.13;;;4.20;99.90;;;;;;5033108;28;20116;-67
2022/11/21 11:56:43;;;;;;;26.13;13.50;;;4.20;99.90;;;;;;5033028;28;20025;-67
2022/11/21 11:59:17;;;;;;;26.95;12.98;;;4.20;99.90;;;;;;5032992;28;20479;-68
2022/11/21 12:01:58;;;;;;;34.63;16.65;;;4.30;99.90;;;;;;5051801;28;20036;-67
2022/11/21 12:04:28;;;;;;;41.33;19.02;;;4.30;99.90;;;;;;5051428;28;20017;-75
2022/11/21 12:07:17;;;;;;;63.33;24.75;;;4.30;99.90;;;;;;5046476;28;20108;-76
2022/11/21 12:10:03;;;;;;;97.18;38.90;;;4.30;99.90;;;;;;5045852;28;20025;-75
2022/11/21 12:12:35;;;;;;;63.85;26.88;;;4.30;99.90;;;;;;5071678;28;20078;-76
2022/11/21 12:18:18;;;;;;;30.33;16.95;;;4.30;99.90;;;;;;5054355;28;20051;-75
2022/11/21 12:20:55;;;;;;;21.50;12.20;;;4.20;99.90;;;;;;5064804;28;20052;-76
2022/11/21 12:23:46;;;;;;;20.05;10.98;;;4.20;99.90;;;;;;5061341;28;20584;-75
2022/11/21 12:26:36;;;;;;;26.27;14.10;;;4.20;99.90;;;;;;5043206;28;20039;-75
2022/11/21 12:29:17;;;;;;;37.03;17.27;;;4.20;99.90;;;;;;5071595;28;20036;-76
2022/11/21 12:31:54;;;;;;;30.95;13.93;;;4.20;99.90;;;;;;5046191;28;20037;-67
2022/11/21 12:34:57;;;;;;;30.95;19.20;;;4.10;99.90;;;;;;5033283;28;20090;-67
2022/11/21 12:37:42;;;;;;;28.80;15.50;;;4.10;99.90;;;;;;5071371;28;20028;-67
2022/11/21 12:40:37;;;;;;;20.63;13.07;;;4.10;99.90;;;;;;5053577;28;20059;-76
2022/11/21 12:43:17;;;;;;;23.80;12.20;;;4.00;99.90;;;;;;5069152;28;20049;-67
2022/11/21 12:45:56;;;;;;;17.90;10.95;;;4.00;99.90;;;;;;5069434;28;20493;-67
2022/11/21 12:55:00;;;;;;;20.08;11.18;;;4.00;99.90;;;;;;5071512;28;20149;-67
2022/11/21 12:57:41;;;;;;;26.42;12.40;;;4.00;99.90;;;;;;5062211;28;20012;-68
2022/11/21 13:00:17;;;;;;;20.23;10.00;;;4.00;99.90;;;;;;5045875;28;20394;-67
2022/11/21 13:03:11;;;;;;;21.02;11.35;;;4.00;99.90;;;;;;5070734;28;20488;-75
2022/11/21 13:05:40;;;;;;;25.45;14.38;;;4.00;99.90;;;;;;5044477;28;20128;-75
2022/11/21 13:08:26;;;;;;;23.10;12.75;;;4.00;99.90;;;;;;5054558;28;20017;-75
2022/11/21 13:14:41;;;;;;;52.55;25.30;;;4.00;99.90;;;;;;5040462;28;20060;-75